Time;durP1;ratioP1;P1;durP2;ratioP2;P2;SDS_P1;SDS_P2;PMS_P1;PMS_P2;Temp;Humidity;BMP_temperature;BMP_pressure;BME280_temperature;BME280_humidity;BME280_pressure;Samples;Min_cycle;Max_cycle;Signal;HPM_P1;HPM_P2
2023/06/11 00:00:09;;;;;;;0.70;0.70;;;;;;;16.59;89.00;96318.72;5044818;28;20045;-69
2023/06/11 00:02:41;;;;;;;0.70;0.70;;;;;;;16.39;88.54;96278.72;5044817;28;20527;-70
2023/06/11 00:05:09;;;;;;;0.68;0.68;;;;;;;16.52;89.41;96310.47;5043780;28;20045;-69
2023/06/11 00:07:40;;;;;;;0.75;0.75;;;;;;;16.04;88.46;96231.84;5062774;28;20052;-71
2023/06/11 00:10:07;;;;;;;0.70;0.70;;;;;;;16.25;88.06;96253.81;5064763;28;20120;-71
2023/06/11 00:12:34;;;;;;;0.70;0.70;;;;;;;16.63;88.25;96312.28;5064218;28;20505;-70
2023/06/11 00:15:02;;;;;;;0.70;0.70;;;;;;;16.13;88.48;96240.47;5062676;28;20055;-69
2023/06/11 00:17:32;;;;;;;0.70;0.70;;;;;;;16.63;87.68;96317.88;5063764;28;20056;-71
2023/06/11 00:20:02;;;;;;;0.70;0.70;;;;;;;16.55;88.08;96312.41;5064017;28;20135;-70
2023/06/11 00:22:31;;;;;;;0.70;0.70;;;;;;;16.54;88.07;96316.41;5062546;28;20045;-69
2023/06/11 00:24:58;;;;;;;0.70;0.70;;;;;;;16.26;89.13;96300.13;5062992;28;20060;-70
2023/06/11 00:27:25;;;;;;;0.70;0.70;;;;;;;15.83;91.31;96276.88;5064174;28;20052;-70
2023/06/11 00:29:53;;;;;;;0.70;0.70;;;;;;;16.05;91.48;96316.44;5062780;28;20044;-70
2023/06/11 00:32:20;;;;;;;0.80;0.80;;;;;;;15.74;89.98;96251.50;5064089;28;20048;-71
2023/06/11 00:34:47;;;;;;;0.70;0.70;;;;;;;15.77;89.32;96245.06;5064119;28;20049;-69
2023/06/11 00:37:14;;;;;;;0.70;0.70;;;;;;;15.69;89.36;96243.59;5062679;28;20306;-70
2023/06/11 00:39:40;;;;;;;0.70;0.70;;;;;;;16.19;89.61;96308.63;5063712;28;20063;-70
2023/06/11 00:42:10;;;;;;;0.65;0.65;;;;;;;16.22;89.40;96309.75;5064243;28;20079;-71
2023/06/11 00:44:36;;;;;;;0.68;0.68;;;;;;;16.16;89.90;96311.47;5063776;28;20143;-69
2023/06/11 00:47:03;;;;;;;0.70;0.70;;;;;;;15.88;90.13;96290.38;5061590;28;20082;-70
2023/06/11 00:49:31;;;;;;;0.70;0.70;;;;;;;15.72;89.43;96283.84;5044132;28;20059;-71
2023/06/11 00:51:58;;;;;;;0.65;0.65;;;;;;;15.87;90.84;96310.34;5043225;28;20508;-70
2023/06/11 00:54:25;;;;;;;0.60;0.60;;;;;;;15.46;91.29;96290.97;5043794;28;20072;-70
2023/06/11 00:56:53;;;;;;;0.60;0.60;;;;;;;15.76;91.50;96327.25;5059335;28;20065;-70
2023/06/11 00:59:20;;;;;;;0.60;0.60;;;;;;;15.02;97.24;96321.81;5043714;28;20529;-69
2023/06/11 01:02:05;;;;;;;0.63;0.63;;;;;;;15.21;96.36;96318.41;5044022;28;20052;-70
2023/06/11 01:04:35;;;;;;;0.60;0.60;;;;;;;15.05;95.91;96281.94;5043886;28;20122;-69
2023/06/11 01:07:05;;;;;;;0.70;0.70;;;;;;;15.41;95.96;96316.59;5043693;28;20526;-69
2023/06/11 01:09:32;;;;;;;0.60;0.60;;;;;;;15.59;94.52;96327.50;5044011;28;20151;-70
2023/06/11 01:12:02;;;;;;;0.60;0.60;;;;;;;15.04;94.11;96260.84;5043500;28;20140;-69
2023/06/11 01:14:32;;;;;;;0.70;0.70;;;;;;;15.55;94.43;96326.75;5043834;28;20059;-69
2023/06/11 01:17:35;;;;;;;0.68;0.68;;;;;;;15.30;94.58;96281.63;5043508;28;20061;-71
2023/06/11 01:20:11;;;;;;;0.70;0.70;;;;;;;15.49;93.87;96329.22;5043616;28;20064;-70
2023/06/11 01:23:13;;;;;;;0.70;0.70;;;;;;;15.49;95.24;96329.22;5043584;28;20118;-70
2023/06/11 01:26:04;;;;;;;0.60;0.60;;;;;;;15.54;94.13;96325.19;5043433;28;20084;-69
2023/06/11 01:28:33;;;;;;;0.63;0.63;;;;;;;15.49;93.88;96326.44;5059048;28;20048;-71
2023/06/11 01:31:05;;;;;;;0.60;0.60;;;;;;;15.35;95.43;96312.63;5041710;28;20139;-71
2023/06/11 01:33:35;;;;;;;0.70;0.70;;;;;;;15.03;95.17;96262.06;5044178;28;20552;-71
2023/06/11 01:36:05;;;;;;;0.70;0.70;;;;;;;15.28;95.64;96326.69;5041911;28;20084;-70
2023/06/11 01:38:41;;;;;;;0.70;0.70;;;;;;;15.33;96.13;96315.06;5043363;28;20060;-69
2023/06/11 01:41:12;;;;;;;0.68;0.68;;;;;;;15.41;95.61;96322.19;5047176;28;20049;-68
2023/06/11 01:43:39;;;;;;;0.60;0.60;;;;;;;15.47;94.67;96317.72;5045941;28;20104;-68
2023/06/11 01:46:06;;;;;;;0.60;0.60;;;;;;;15.51;94.18;96343.56;5047059;28;20136;-68
2023/06/11 01:48:33;;;;;;;0.60;0.60;;;;;;;15.35;94.64;96329.38;5047558;28;20056;-69
2023/06/11 01:51:00;;;;;;;0.60;0.60;;;;;;;15.45;94.52;96317.31;5047309;28;20048;-69
2023/06/11 01:53:26;;;;;;;0.60;0.60;;;;;;;15.54;93.68;96325.19;5045400;28;20504;-70
2023/06/11 01:55:56;;;;;;;0.70;0.70;;;;;;;15.49;94.58;96328.44;5046924;28;20056;-69
2023/06/11 01:58:23;;;;;;;0.70;0.70;;;;;;;15.49;93.49;96337.59;5046812;28;20052;-70
2023/06/11 02:00:50;;;;;;;0.68;0.68;;;;;;;15.45;94.68;96317.31;5046563;28;20833;-70
2023/06/11 02:03:17;;;;;;;0.70;0.70;;;;;;;15.33;94.46;96303.91;5046513;28;20447;-68
2023/06/11 02:05:44;;;;;;;0.70;0.70;;;;;;;15.13;93.93;96255.53;5045163;28;20512;-69
2023/06/11 02:08:11;;;;;;;0.68;0.68;;;;;;;15.08;92.05;96225.31;5047368;28;20389;-70
2023/06/11 02:10:37;;;;;;;0.60;0.60;;;;;;;15.70;92.84;96322.56;5045426;28;20122;-69
2023/06/11 02:13:04;;;;;;;0.60;0.60;;;;;;;15.68;92.35;96319.41;5046923;28;20049;-69
2023/06/11 02:15:31;;;;;;;0.70;0.70;;;;;;;15.56;92.18;96278.09;5046672;28;20059;-70
2023/06/11 02:17:57;;;;;;;0.60;0.60;;;;;;;15.88;91.73;96323.88;5046372;28;20052;-69
2023/06/11 02:20:24;;;;;;;0.60;0.60;;;;;;;15.10;94.13;96285.06;5046632;28;20053;-70
2023/06/11 02:22:51;;;;;;;0.70;0.70;;;;;;;15.14;97.05;96315.72;5046747;28;20056;-69
2023/06/11 02:25:18;;;;;;;0.60;0.60;;;;;;;15.36;95.08;96324.59;5046381;28;20170;-68
2023/06/11 02:27:44;;;;;;;0.70;0.70;;;;;;;15.06;97.21;96317.00;5044910;28;20048;-69
2023/06/11 02:30:12;;;;;;;0.65;0.65;;;;;;;15.30;96.27;96315.13;5046270;28;20059;-68
2023/06/11 02:32:40;;;;;;;0.70;0.70;;;;;;;15.41;95.29;96299.06;5046014;28;20063;-70
2023/06/11 02:35:07;;;;;;;0.60;0.60;;;;;;;15.15;95.18;96320.09;5046063;28;20352;-70
2023/06/11 02:37:34;;;;;;;0.70;0.70;;;;;;;14.15;95.20;96173.09;5046105;28;20205;-70
2023/06/11 02:40:01;;;;;;;0.55;0.55;;;;;;;15.35;94.97;96321.00;5045089;28;20049;-71
2023/06/11 02:42:28;;;;;;;0.60;0.60;;;;;;;15.48;94.76;96327.66;5046060;28;20052;-71
2023/06/11 02:44:55;;;;;;;0.60;0.60;;;;;;;15.09;95.80;96324.56;5046395;28;20063;-70
2023/06/11 02:47:21;;;;;;;0.70;0.70;;;;;;;15.21;95.54;96318.41;5045470;28;20045;-70
2023/06/11 02:49:48;;;;;;;0.60;0.60;;;;;;;15.41;93.51;96327.75;5045096;28;20128;-68
2023/06/11 02:52:15;;;;;;;0.60;0.60;;;;;;;15.10;93.60;96292.66;5045825;28;20053;-70
2023/06/11 02:54:41;;;;;;;0.70;0.70;;;;;;;15.27;94.28;96305.56;5045675;28;20072;-69
2023/06/11 02:57:08;;;;;;;0.65;0.65;;;;;;;15.08;95.72;96309.00;5045819;28;20049;-70
2023/06/11 02:59:35;;;;;;;0.60;0.60;;;;;;;15.27;94.91;96327.88;5046173;28;20053;-69
2023/06/11 03:02:01;;;;;;;0.60;0.60;;;;;;;15.04;95.15;96336.97;5045779;28;20053;-69
2023/06/11 03:04:28;;;;;;;0.60;0.60;;;;;;;14.84;98.56;96326.84;5045891;28;20076;-69
2023/06/11 03:06:55;;;;;;;0.60;0.60;;;;;;;14.63;96.70;96271.31;5045815;28;20053;-70
2023/06/11 03:09:23;;;;;;;0.60;0.60;;;;;;;14.65;99.62;96330.22;5044465;28;20152;-69
2023/06/11 03:11:51;;;;;;;0.63;0.63;;;;;;;15.08;98.53;96317.38;5045816;28;20134;-69
2023/06/11 03:14:20;;;;;;;0.60;0.60;;;;;;;15.34;95.55;96325.03;5045776;28;20055;-69
2023/06/11 03:16:47;;;;;;;0.60;0.60;;;;;;;15.57;94.30;96324.34;5045505;28;20052;-69
2023/06/11 03:19:14;;;;;;;0.70;0.70;;;;;;;15.74;93.29;96328.88;5045777;28;20269;-69
2023/06/11 03:21:41;;;;;;;0.70;0.70;;;;;;;15.52;93.06;96269.78;5045877;28;20475;-70
2023/06/11 03:24:07;;;;;;;0.60;0.60;;;;;;;15.77;93.38;96328.84;5044290;28;20051;-70
2023/06/11 03:26:34;;;;;;;0.60;0.60;;;;;;;15.85;93.07;96302.38;5043849;28;20059;-71
2023/06/11 03:29:01;;;;;;;0.65;0.65;;;;;;;16.30;90.32;96345.56;5045469;28;20507;-71
2023/06/11 03:31:28;;;;;;;0.70;0.70;;;;;;;16.02;90.38;96283.75;5045024;28;20044;-69
2023/06/11 03:33:55;;;;;;;0.70;0.70;;;;;;;16.63;89.47;96330.63;5045194;28;20519;-71
2023/06/11 03:36:22;;;;;;;0.60;0.60;;;;;;;16.83;88.69;96332.66;5045093;28;20053;-70
2023/06/11 03:38:49;;;;;;;0.80;0.80;;;;;;;16.82;87.59;96331.09;5045180;28;20060;-70
2023/06/11 03:41:15;;;;;;;0.70;0.70;;;;;;;16.94;87.22;96327.66;5043740;28;20063;-71
2023/06/11 03:43:42;;;;;;;0.70;0.70;;;;;;;17.13;86.08;96329.69;5045220;28;20451;-69
2023/06/11 03:46:09;;;;;;;0.70;0.70;;;;;;;16.92;86.50;96336.50;5044834;28;20625;-70
2023/06/11 03:48:36;;;;;;;0.70;0.70;;;;;;;16.58;87.92;96289.16;5044871;28;20056;-69
2023/06/11 03:51:02;;;;;;;0.73;0.73;;;;;;;16.94;86.09;96288.50;5043371;28;20049;-68
2023/06/11 03:53:29;;;;;;;0.80;0.80;;;;;;;17.46;84.90;96331.44;5044896;28;20531;-70
2023/06/11 03:55:56;;;;;;;0.80;0.80;;;;;;;17.53;85.05;96332.06;5044309;28;20104;-70
2023/06/11 03:58:23;;;;;;;0.80;0.80;;;;;;;17.67;83.53;96342.19;5044915;28;20670;-69
2023/06/11 04:00:50;;;;;;;0.80;0.80;;;;;;;17.71;82.57;96337.28;5042852;28;20047;-69
2023/06/11 04:03:17;;;;;;;0.75;0.75;;;;;;;17.61;84.00;96343.88;5043031;28;20531;-69
2023/06/11 04:05:43;;;;;;;0.80;0.80;;;;;;;17.56;84.36;96330.41;5043997;28;20110;-70
2023/06/11 04:08:10;;;;;;;0.70;0.70;;;;;;;16.63;83.23;96170.44;5043107;28;20075;-69
2023/06/11 04:10:37;;;;;;;0.75;0.75;;;;;;;18.21;81.09;96353.75;5043128;28;20745;-70
2023/06/11 04:13:04;;;;;;;0.80;0.80;;;;;;;18.46;79.34;96348.34;5044478;28;20048;-69
2023/06/11 04:15:31;;;;;;;0.80;0.80;;;;;;;18.15;78.85;96244.16;5044131;28;20523;-70
2023/06/11 04:17:57;;;;;;;0.80;0.80;;;;;;;18.84;77.80;96330.50;5044450;28;20055;-70
2023/06/11 04:20:24;;;;;;;0.80;0.80;;;;;;;18.46;76.67;96239.78;5044337;28;20122;-70
2023/06/11 04:22:51;;;;;;;0.90;0.90;;;;;;;19.35;75.86;96326.72;5046042;28;20071;-70
2023/06/11 04:25:18;;;;;;;0.80;0.80;;;;;;;19.63;75.12;96324.31;5044031;28;20049;-71
2023/06/11 04:27:46;;;;;;;0.90;0.90;;;;;;;19.58;74.23;96294.75;5044400;28;20118;-71
2023/06/11 04:30:14;;;;;;;0.95;0.95;;;;;;;19.97;74.09;96304.75;5042778;28;20060;-67
2023/06/11 04:32:44;;;;;;;0.90;0.90;;;;;;;20.11;73.20;96332.44;5057540;28;20139;-70
2023/06/11 04:35:11;;;;;;;1.00;1.00;;;;;;;19.86;74.34;96333.22;5062835;28;20467;-69
2023/06/11 04:37:45;;;;;;;0.90;0.90;;;;;;;19.91;73.56;96323.44;5063824;28;20060;-70
2023/06/11 04:40:19;;;;;;;0.90;0.90;;;;;;;20.29;72.80;96327.06;5064934;28;20063;-68
2023/06/11 04:42:46;;;;;;;1.00;1.00;;;;;;;19.24;72.20;96163.31;5053510;28;20750;-68
2023/06/11 04:45:13;;;;;;;1.00;1.00;;;;;;;20.41;71.04;96329.06;5084106;28;20476;-69
2023/06/11 04:47:40;;;;;;;0.80;0.80;;;;;;;20.00;72.85;96292.63;5083662;28;20055;-68
2023/06/11 04:50:07;;;;;;;0.90;0.90;;;;;;;20.46;73.26;96326.50;5082632;28;20044;-70
2023/06/11 04:52:35;;;;;;;1.00;1.00;;;;;;;20.75;72.68;96323.50;5083987;28;20052;-68
2023/06/11 04:55:03;;;;;;;0.80;0.80;;;;;;;20.85;71.77;96319.53;5084091;28;20055;-68
2023/06/11 04:57:32;;;;;;;0.80;0.80;;;;;;;21.15;69.65;96324.50;5083871;28;20056;-69
2023/06/11 05:00:04;;;;;;;1.00;1.00;;;;;;;21.35;68.48;96333.47;5084243;28;20055;-68
2023/06/11 05:02:32;;;;;;;1.00;1.00;;;;;;;21.47;68.62;96332.59;5083694;28;20557;-69
2023/06/11 05:04:58;;;;;;;1.00;1.00;;;;;;;21.68;68.12;96331.81;5083821;28;20055;-69
2023/06/11 05:07:25;;;;;;;1.00;1.00;;;;;;;21.75;65.91;96331.56;5083886;28;20509;-67
2023/06/11 05:09:52;;;;;;;0.90;0.90;;;;;;;20.99;68.39;96212.84;5082865;28;20059;-69
2023/06/11 05:12:19;;;;;;;0.90;0.90;;;;;;;21.86;70.22;96337.56;5084147;28;20048;-68
2023/06/11 05:14:45;;;;;;;0.90;0.90;;;;;;;21.77;69.30;96329.06;5086528;28;20052;-67
2023/06/11 05:17:12;;;;;;;1.00;1.00;;;;;;;22.01;68.79;96327.34;5088024;28;20509;-68
2023/06/11 05:19:39;;;;;;;0.90;0.90;;;;;;;21.90;67.87;96292.31;5086882;28;20067;-68
2023/06/11 05:22:06;;;;;;;0.90;0.90;;;;;;;22.36;66.60;96337.22;5086231;28;20055;-67
2023/06/11 05:24:33;;;;;;;1.00;1.00;;;;;;;22.45;66.66;96340.06;5087725;28;20044;-69
2023/06/11 05:27:00;;;;;;;1.00;1.00;;;;;;;22.37;65.90;96292.81;5087960;28;20063;-69
2023/06/11 05:29:27;;;;;;;0.93;0.93;;;;;;;22.68;65.44;96307.69;5087662;28;20047;-69
2023/06/11 05:31:56;;;;;;;0.90;0.90;;;;;;;23.03;64.93;96333.63;5093484;28;20047;-69
2023/06/11 05:34:25;;;;;;;0.90;0.90;;;;;;;23.20;62.96;96332.06;5108178;28;20184;-68
2023/06/11 05:36:52;;;;;;;1.08;1.08;;;;;;;23.21;62.54;96308.19;5107684;28;20498;-69
2023/06/11 05:39:20;;;;;;;1.00;1.00;;;;;;;21.63;62.41;96033.59;5107813;28;20044;-69
2023/06/11 05:41:47;;;;;;;1.00;1.00;;;;;;;23.55;62.94;96331.28;5106245;28;20055;-68
2023/06/11 05:44:13;;;;;;;1.08;1.08;;;;;;;23.83;62.26;96318.69;5108422;28;20553;-72
2023/06/11 05:46:40;;;;;;;1.00;1.00;;;;;;;23.85;63.47;96326.72;5105987;28;20051;-72
2023/06/11 05:49:07;;;;;;;1.10;1.10;;;;;;;23.88;61.72;96329.34;5107806;28;20054;-71
2023/06/11 05:51:35;;;;;;;1.13;1.13;;;;;;;24.05;61.33;96329.03;5105633;28;20051;-68
2023/06/11 05:54:03;;;;;;;1.10;1.10;;;;;;;24.30;62.01;96326.59;5107335;28;20086;-69
2023/06/11 05:56:30;;;;;;;1.20;1.20;;;;;;;24.46;61.66;96326.19;5106228;28;20047;-72
2023/06/11 05:58:56;;;;;;;1.15;1.15;;;;;;;24.61;61.38;96332.72;5105838;28;20138;-71
2023/06/11 06:01:23;;;;;;;1.23;1.23;;;;;;;24.66;61.56;96329.28;5107377;28;20422;-69
2023/06/11 06:03:50;;;;;;;1.17;1.17;;;;;;;24.85;60.01;96330.72;5107549;28;20078;-70
2023/06/11 06:06:18;;;;;;;1.25;1.25;;;;;;;25.03;58.98;96330.63;5105683;28;20066;-70
2023/06/11 06:08:45;;;;;;;1.13;1.13;;;;;;;25.11;55.37;96323.34;5105913;28;20122;-71
2023/06/11 06:11:12;;;;;;;1.20;1.20;;;;;;;25.28;55.33;96335.78;5105716;28;20082;-71
2023/06/11 06:13:39;;;;;;;1.20;1.20;;;;;;;25.39;52.61;96331.66;5107170;28;20581;-69
2023/06/11 06:16:07;;;;;;;1.33;1.33;;;;;;;25.44;50.31;96325.28;5106526;28;20434;-70
2023/06/11 06:18:35;;;;;;;1.30;1.30;;;;;;;25.61;49.14;96330.03;5107066;28;20138;-70
2023/06/11 06:21:01;;;;;;;1.20;1.20;;;;;;;25.75;49.39;96328.50;5105546;28;20150;-70
2023/06/11 06:23:28;;;;;;;1.50;1.50;;;;;;;25.85;49.60;96335.63;5105776;28;20555;-70
2023/06/11 06:25:55;;;;;;;1.30;1.30;;;;;;;25.95;48.45;96325.75;5104938;28;20415;-70
2023/06/11 06:28:21;;;;;;;1.40;1.40;;;;;;;26.17;49.02;96331.84;5104959;28;20047;-72
2023/06/11 06:30:49;;;;;;;1.50;1.50;;;;;;;25.89;47.71;96328.47;5106047;28;20047;-70
2023/06/11 06:33:16;;;;;;;1.42;1.42;;;;;;;26.12;47.17;96335.38;5088395;27;20312;-70
2023/06/11 06:35:43;;;;;;;1.38;1.38;;;;;;;25.95;46.94;96337.13;5085958;28;20051;-69
2023/06/11 06:38:10;;;;;;;1.33;1.33;;;;;;;25.86;47.05;96332.28;5083971;28;20063;-72
2023/06/11 06:40:36;;;;;;;1.30;1.30;;;;;;;26.13;46.92;96331.28;5085960;28;20052;-72
2023/06/11 06:43:03;;;;;;;1.50;1.50;;;;;;;26.42;46.35;96332.03;5070686;28;20167;-73
2023/06/11 06:45:30;;;;;;;1.15;1.15;;;;;;;26.67;45.50;96327.78;5086405;28;20142;-71
2023/06/11 06:47:56;;;;;;;1.20;1.20;;;;;;;25.96;45.78;96259.19;5084856;28;20056;-71
2023/06/11 06:50:23;;;;;;;1.40;1.40;;;;;;;26.22;45.21;96316.97;5085982;28;20113;-72
2023/06/11 06:52:50;;;;;;;1.40;1.40;;;;;;;25.98;45.05;96262.31;5086063;28;20059;-69
2023/06/11 06:55:19;;;;;;;1.25;1.25;;;;;;;26.36;44.62;96284.91;5085656;28;20529;-71
2023/06/11 06:57:46;;;;;;;1.38;1.38;;;;;;;26.44;44.85;96288.94;5084371;28;20510;-68
2023/06/11 07:00:14;;;;;;;1.38;1.38;;;;;;;26.78;45.50;96325.09;5085772;28;20058;-70
2023/06/11 07:02:41;;;;;;;1.45;1.45;;;;;;;27.04;44.34;96320.31;5085987;28;20044;-71
2023/06/11 07:05:08;;;;;;;1.40;1.40;;;;;;;26.99;43.75;96318.19;5085808;28;20482;-71
2023/06/11 07:07:35;;;;;;;1.40;1.40;;;;;;;27.10;43.12;96300.47;5084379;28;20131;-68
2023/06/11 07:10:02;;;;;;;1.50;1.50;;;;;;;26.96;42.42;96293.59;5086280;28;20245;-72
2023/06/11 07:12:28;;;;;;;1.50;1.50;;;;;;;26.22;44.72;96280.06;5085871;28;20084;-70
2023/06/11 07:14:55;;;;;;;1.45;1.45;;;;;;;26.46;44.01;96301.34;5085905;28;20449;-69
2023/06/11 07:17:23;;;;;;;1.40;1.40;;;;;;;26.22;43.66;96254.50;5083280;28;20066;-71
2023/06/11 07:19:50;;;;;;;1.20;1.20;;;;;;;26.69;44.91;96311.81;5063934;28;20060;-70
2023/06/11 07:22:17;;;;;;;1.50;1.50;;;;;;;27.08;43.13;96320.13;5064537;28;20045;-71
2023/06/11 07:24:47;;;;;;;1.67;1.67;;;;;;;27.32;41.64;96297.94;5065504;28;20053;-71
2023/06/11 07:27:14;;;;;;;1.65;1.65;;;;;;;27.36;42.86;96307.06;5063107;28;20539;-71
2023/06/11 07:29:41;;;;;;;1.60;1.60;;;;;;;27.28;41.76;96283.16;5064637;28;20127;-70
2023/06/11 07:32:08;;;;;;;1.45;1.45;;;;;;;27.50;41.45;96301.28;5071325;28;20044;-72
2023/06/11 07:34:35;;;;;;;1.40;1.40;;;;;;;26.67;43.39;96299.38;5083325;28;20699;-71
2023/06/11 07:37:02;;;;;;;1.40;1.40;;;;;;;26.70;43.13;96315.41;5084784;28;20055;-71
2023/06/11 07:39:29;;;;;;;1.50;1.50;;;;;;;26.43;42.10;96247.59;5085183;28;20063;-71
2023/06/11 07:41:56;;;;;;;1.52;1.52;;;;;;;27.00;42.81;96305.50;5083511;28;20054;-70
2023/06/11 07:44:22;;;;;;;1.45;1.45;;;;;;;27.20;42.37;96316.91;5085121;28;20423;-70
2023/06/11 07:46:49;;;;;;;1.50;1.50;;;;;;;27.22;41.79;96320.03;5084800;28;20098;-70
2023/06/11 07:49:16;;;;;;;1.25;1.25;;;;;;;26.75;43.81;96317.56;5085168;28;20176;-69
2023/06/11 07:51:44;;;;;;;1.40;1.40;;;;;;;27.28;42.92;96320.13;5085192;28;20481;-71
2023/06/11 07:54:11;;;;;;;1.40;1.40;;;;;;;27.04;42.20;96311.78;5083331;28;20051;-71
2023/06/11 07:56:38;;;;;;;1.60;1.60;;;;;;;27.00;43.08;96316.88;5084323;28;20052;-71
2023/06/11 07:59:06;;;;;;;1.50;1.50;;;;;;;27.09;42.31;96313.94;5085049;28;20140;-71
2023/06/11 08:01:36;;;;;;;1.50;1.50;;;;;;;26.59;43.91;96289.66;5084923;28;20159;-71
2023/06/11 08:04:02;;;;;;;1.50;1.50;;;;;;;26.62;43.99;96317.06;5084940;28;20457;-68
2023/06/11 08:06:29;;;;;;;1.50;1.50;;;;;;;26.52;43.66;96315.66;5084538;28;20054;-71
2023/06/11 08:08:56;;;;;;;1.30;1.30;;;;;;;26.85;43.25;96313.34;5084410;28;20055;-70
2023/06/11 08:11:23;;;;;;;1.45;1.45;;;;;;;27.11;42.85;96316.28;5084216;28;20056;-72
2023/06/11 08:13:49;;;;;;;1.27;1.27;;;;;;;26.53;42.99;96320.03;5083357;28;20054;-68
2023/06/11 08:16:17;;;;;;;1.30;1.30;;;;;;;26.39;43.21;96215.75;5084338;28;20048;-69
2023/06/11 08:18:43;;;;;;;1.35;1.35;;;;;;;27.32;42.87;96335.72;5084017;28;20048;-70
2023/06/11 08:21:10;;;;;;;1.40;1.40;;;;;;;27.38;42.54;96333.72;5084583;28;20615;-71
2023/06/11 08:23:38;;;;;;;1.42;1.42;;;;;;;26.91;43.25;96322.72;5084452;28;20058;-72
2023/06/11 08:26:06;;;;;;;1.40;1.40;;;;;;;27.10;43.89;96323.22;5081570;28;20534;-71
2023/06/11 08:28:34;;;;;;;1.20;1.20;;;;;;;26.65;44.20;96310.47;5083072;28;20051;-71
2023/06/11 08:31:01;;;;;;;1.60;1.60;;;;;;;27.28;43.21;96328.66;5082515;28;20131;-71
2023/06/11 08:33:28;;;;;;;1.45;1.45;;;;;;;27.41;43.92;96335.56;5099554;28;20052;-69
2023/06/11 08:35:55;;;;;;;1.45;1.45;;;;;;;27.40;44.42;96322.63;5086587;28;20056;-74
2023/06/11 08:38:22;;;;;;;1.50;1.50;;;;;;;27.53;43.27;96327.94;5082731;28;20185;-73
2023/06/11 08:40:49;;;;;;;1.48;1.48;;;;;;;27.15;43.78;96326.16;5085846;28;20134;-71
2023/06/11 08:43:16;;;;;;;1.33;1.33;;;;;;;27.36;42.92;96273.69;5082606;28;20600;-73
2023/06/11 08:45:54;;;;;;;1.80;1.80;;;;;;;27.62;42.41;96285.09;1425533;28;10021729;-72
2023/06/11 08:48:40;;;;;;;1.38;1.38;;;;;;;27.19;42.07;96315.34;17;3693;10020766;-74
2023/06/11 08:51:09;;;;;;;1.40;1.40;;;;;;;27.17;41.92;96334.19;4364944;28;10000132;-73
2023/06/11 08:53:39;;;;;;;1.40;1.40;;;;;;;27.07;43.26;96330.69;5063602;28;20067;-73
2023/06/11 08:56:07;;;;;;;1.70;1.70;;;;;;;27.33;43.24;96297.44;5063586;28;20052;-73
2023/06/11 08:58:35;;;;;;;1.52;1.52;;;;;;;27.42;43.10;96328.59;5062400;28;20079;-70
2023/06/11 09:01:09;;;;;;;1.40;1.40;;;;;;;26.91;44.46;96322.72;5063472;28;20052;-72
2023/06/11 09:03:35;;;;;;;1.50;1.50;;;;;;;27.00;44.47;96331.09;5063755;28;20049;-69
2023/06/11 09:06:03;;;;;;;1.42;1.42;;;;;;;27.46;43.78;96329.16;5063558;28;20061;-72
2023/06/11 09:08:30;;;;;;;1.55;1.55;;;;;;;26.62;45.51;96295.13;5063935;28;20227;-71
2023/06/11 09:10:57;;;;;;;1.60;1.60;;;;;;;27.14;44.01;96323.81;5063776;28;20454;-72
2023/06/11 09:13:26;;;;;;;1.38;1.38;;;;;;;27.41;44.88;96327.00;5062048;28;20067;-72
2023/06/11 09:15:57;;;;;;;1.40;1.40;;;;;;;27.45;42.64;96326.81;5063130;28;20053;-71
2023/06/11 09:18:25;;;;;;;1.73;1.73;;;;;;;26.88;43.52;96275.38;5063437;28;20052;-72
2023/06/11 09:20:54;;;;;;;1.63;1.63;;;;;;;27.63;43.60;96327.28;5063486;28;20075;-70
2023/06/11 09:23:32;;;;;;;1.52;1.52;;;;;;;28.21;42.58;96322.47;5062574;28;20062;-72
2023/06/11 09:26:00;;;;;;;1.50;1.50;;;;;;;27.14;42.89;96273.38;5063716;28;20480;-72
2023/06/11 09:28:28;;;;;;;1.60;1.60;;;;;;;27.48;44.08;96326.59;5063667;28;20053;-69
2023/06/11 09:30:57;;;;;;;1.67;1.67;;;;;;;27.86;43.40;96334.78;5063604;28;20058;-70
2023/06/11 09:33:24;;;;;;;1.52;1.52;;;;;;;27.89;39.47;96325.28;5061881;28;20048;-71
2023/06/11 09:35:51;;;;;;;1.70;1.70;;;;;;;28.36;37.69;96337.38;5061523;28;20139;-70
2023/06/11 09:38:20;;;;;;;1.70;1.70;;;;;;;28.47;37.50;96334.63;5063188;28;20477;-71
2023/06/11 09:40:48;;;;;;;1.83;1.83;;;;;;;28.37;38.00;96330.38;5061585;28;20547;-70
2023/06/11 09:43:21;;;;;;;1.42;1.42;;;;;;;27.91;38.78;96297.09;5063069;28;20132;-70
2023/06/11 09:45:55;;;;;;;1.70;1.70;;;;;;;27.71;40.51;96328.41;5063651;28;20052;-69
2023/06/11 09:48:23;;;;;;;1.58;1.58;;;;;;;27.85;40.37;96338.91;5063262;28;20098;-70
2023/06/11 09:50:52;;;;;;;1.42;1.42;;;;;;;28.09;41.21;96336.59;5063313;28;20044;-69
2023/06/11 09:53:20;;;;;;;1.85;1.85;;;;;;;27.69;39.60;96273.28;5062862;28;20060;-71
2023/06/11 09:55:51;;;;;;;1.90;1.90;;;;;;;28.22;38.96;96321.19;5062788;28;20059;-68
2023/06/11 09:58:23;;;;;;;;;;;;;;;28.10;39.69;96331.69;5063490;28;20477;-68
2023/06/11 10:00:52;;;;;;;1.55;1.55;;;;;;;27.53;42.10;96311.66;5065948;28;19925;-69
2023/06/11 10:03:19;;;;;;;1.60;1.60;;;;;;;27.62;43.57;96320.03;5066967;28;20055;-69
2023/06/11 10:05:46;;;;;;;1.42;1.42;;;;;;;26.70;44.38;96191.19;5064913;28;20151;-71
2023/06/11 10:08:17;;;;;;;1.63;1.63;;;;;;;27.20;42.56;96265.72;5066693;28;20066;-71
2023/06/11 10:10:46;;;;;;;1.50;1.50;;;;;;;27.22;41.88;96243.22;5066734;28;20076;-71
2023/06/11 10:13:30;;;;;;;1.70;1.70;;;;;;;27.81;42.24;96303.41;5066615;28;20094;-70
2023/06/11 10:16:06;;;;;;;1.30;1.30;;;;;;;27.92;43.20;96310.03;5064784;28;20486;-70
2023/06/11 10:18:33;;;;;;;1.70;1.70;;;;;;;28.11;45.39;96311.25;5066268;28;20057;-70
2023/06/11 10:21:01;;;;;;;1.30;1.30;;;;;;;27.75;51.16;96309.06;5066444;28;20052;-70
2023/06/11 10:23:36;;;;;;;1.60;1.60;;;;;;;27.16;56.47;96304.97;5064383;28;20076;-70
2023/06/11 10:26:04;;;;;;;1.60;1.60;;;;;;;26.48;58.89;96261.06;5064906;28;20056;-70
2023/06/11 10:28:42;;;;;;;1.33;1.33;;;;;;;26.29;62.28;96311.66;5066496;28;20166;-71
2023/06/11 10:31:09;;;;;;;1.40;1.40;;;;;;;25.99;61.26;96261.84;5065187;28;20049;-71
2023/06/11 10:33:41;;;;;;;1.30;1.30;;;;;;;25.87;64.40;96318.91;5066374;28;20136;-70
2023/06/11 10:36:07;;;;;;;1.23;1.23;;;;;;;25.85;65.54;96310.09;5065009;28;20147;-70
2023/06/11 10:38:40;;;;;;;1.40;1.40;;;;;;;25.67;63.77;96315.97;5064414;28;20526;-70
2023/06/11 10:41:07;;;;;;;1.40;1.40;;;;;;;25.35;65.25;96316.88;5065892;28;20048;-70
2023/06/11 10:43:36;;;;;;;1.15;1.15;;;;;;;24.75;56.79;96303.75;5066025;28;20053;-71
2023/06/11 10:46:04;;;;;;;1.23;1.23;;;;;;;24.83;51.45;96307.75;5064489;28;20102;-70
2023/06/11 10:48:31;;;;;;;1.20;1.20;;;;;;;24.49;52.69;96214.81;5064596;28;20060;-72
2023/06/11 10:51:01;;;;;;;1.17;1.17;;;;;;;25.17;51.74;96318.56;5065862;28;20602;-70
2023/06/11 10:53:40;;;;;;;1.20;1.20;;;;;;;25.41;52.52;96320.59;5066054;28;20059;-71
2023/06/11 10:56:12;;;;;;;1.38;1.38;;;;;;;25.76;55.09;96316.66;5065570;28;20161;-69
2023/06/11 10:58:40;;;;;;;1.40;1.40;;;;;;;25.75;59.95;96315.06;5066157;28;20056;-70
2023/06/11 11:01:08;;;;;;;1.33;1.33;;;;;;;25.55;62.54;96285.78;5065806;28;20427;-70
2023/06/11 11:03:38;;;;;;;1.20;1.20;;;;;;;25.72;62.17;96306.78;5064255;28;20127;-70
2023/06/11 11:06:05;;;;;;;1.40;1.40;;;;;;;25.62;61.06;96302.44;5063821;28;20063;-70
2023/06/11 11:08:32;;;;;;;1.30;1.30;;;;;;;25.82;59.86;96306.19;5065712;28;20072;-71
2023/06/11 11:10:59;;;;;;;1.30;1.30;;;;;;;26.22;56.34;96299.94;5064542;28;20059;-71
2023/06/11 11:13:28;;;;;;;1.40;1.40;;;;;;;26.53;54.14;96297.31;5065722;28;20056;-71
2023/06/11 11:15:55;;;;;;;1.45;1.45;;;;;;;26.71;52.77;96291.44;5065320;28;20588;-68
2023/06/11 11:18:21;;;;;;;1.30;1.30;;;;;;;26.93;52.18;96274.69;4921148;28;5001365;-70
2023/06/11 11:20:53;;;;;;;1.30;1.30;;;;;;;27.15;51.48;96302.59;5105835;28;20127;-71
2023/06/11 11:23:22;;;;;;;1.30;1.30;;;;;;;26.78;57.11;96305.22;5105997;27;20065;-70
2023/06/11 11:25:51;;;;;;;1.50;1.50;;;;;;;26.86;58.45;96314.88;5104541;28;20052;-70
2023/06/11 11:28:17;;;;;;;1.40;1.40;;;;;;;26.27;62.91;96302.09;5105854;28;20058;-70
2023/06/11 11:30:44;;;;;;;1.45;1.45;;;;;;;26.17;63.97;96326.16;5105735;28;20051;-70
2023/06/11 11:33:11;;;;;;;1.40;1.40;;;;;;;25.48;63.55;96263.50;5095491;28;20051;-71
2023/06/11 11:35:49;;;;;;;1.30;1.30;;;;;;;25.39;65.29;96323.16;5084935;28;20557;-71
2023/06/11 11:38:16;;;;;;;1.20;1.20;;;;;;;25.30;66.98;96321.94;5084939;28;20495;-70